Time;durP1;ratioP1;P1;durP2;ratioP2;P2;SDS_P1;SDS_P2;PMS_P1;PMS_P2;Temp;Humidity;BMP_temperature;BMP_pressure;BME280_temperature;BME280_humidity;BME280_pressure;Samples;Min_cycle;Max_cycle;Signal;HPM_P1;HPM_P2
2021/04/04 00:01:52;;;;;;;;;;;23.90;37.40;;;;;;1586797;73;779;-65
2021/04/04 00:03:54;;;;;;;;;;;23.90;37.30;;;;;;1583159;73;789;-65
2021/04/04 00:05:56;;;;;;;;;;;23.90;37.50;;;;;;1567886;73;1942;-66
2021/04/04 00:07:57;;;;;;;;;;;23.90;37.60;;;;;;1591787;73;654;-65
2021/04/04 00:09:59;;;;;;;;;;;23.80;37.40;;;;;;1587189;73;746;-65
2021/04/04 00:12:01;;;;;;;;;;;23.90;37.70;;;;;;1590438;73;712;-64
2021/04/04 00:14:03;;;;;;;;;;;23.90;37.80;;;;;;1587590;73;675;-65
2021/04/04 00:16:05;;;;;;;;;;;23.90;37.80;;;;;;1583879;73;1166;-65
2021/04/04 00:18:07;;;;;;;;;;;23.80;37.80;;;;;;1589935;73;664;-65
2021/04/04 00:20:14;;;;;;;;;;;23.80;37.90;;;;;;1584569;73;821;-65
2021/04/04 00:22:16;;;;;;;;;;;23.90;38.10;;;;;;1581652;73;779;-63
2021/04/04 00:24:17;;;;;;;;;;;23.90;38.00;;;;;;1593775;73;791;-65
2021/04/04 00:26:19;;;;;;;;;;;23.90;38.20;;;;;;1593687;73;1948;-64
2021/04/04 00:28:21;;;;;;;;;;;23.80;38.00;;;;;;1586295;73;736;-65
2021/04/04 00:30:23;;;;;;;;;;;23.80;38.10;;;;;;1585562;73;748;-65
2021/04/04 00:32:25;;;;;;;;;;;23.90;38.30;;;;;;1586515;73;763;-65
2021/04/04 00:34:27;;;;;;;;;;;23.90;38.30;;;;;;1582892;73;656;-65
2021/04/04 00:36:29;;;;;;;;;;;23.90;38.40;;;;;;1585413;73;807;-66
2021/04/04 00:38:31;;;;;;;;;;;23.90;38.20;;;;;;1577500;73;746;-64
2021/04/04 00:40:33;;;;;;;;;;;23.90;38.10;;;;;;1579722;73;784;-65
2021/04/04 00:42:35;;;;;;;;;;;23.90;38.10;;;;;;1580138;73;747;-66
2021/04/04 00:44:37;;;;;;;;;;;23.90;38.20;;;;;;1585416;73;1201;-64
2021/04/04 00:46:39;;;;;;;;;;;24.00;38.00;;;;;;1572498;73;1950;-63
2021/04/04 00:48:41;;;;;;;;;;;24.00;38.00;;;;;;1595550;73;750;-65
2021/04/04 00:50:43;;;;;;;;;;;23.90;37.90;;;;;;1578791;73;791;-64
2021/04/04 00:52:44;;;;;;;;;;;23.90;38.00;;;;;;1593992;73;748;-64
2021/04/04 00:54:46;;;;;;;;;;;24.00;38.10;;;;;;1574065;73;1173;-64
2021/04/04 00:56:48;;;;;;;;;;;23.90;38.00;;;;;;1584010;73;750;-64
2021/04/04 00:58:50;;;;;;;;;;;24.00;38.00;;;;;;1585041;73;763;-66
2021/04/04 01:00:52;;;;;;;;;;;24.00;38.10;;;;;;1586683;73;798;-64
2021/04/04 01:02:55;;;;;;;;;;;23.90;38.10;;;;;;1577455;73;757;-64
2021/04/04 01:05:00;;;;;;;;;;;23.90;38.00;;;;;;1584070;74;1937;-64
2021/04/04 01:07:00;;;;;;;;;;;23.90;38.00;;;;;;1592098;73;1628;-64
2021/04/04 01:09:02;;;;;;;;;;;24.00;37.90;;;;;;1594482;73;737;-63
2021/04/04 01:11:04;;;;;;;;;;;23.90;37.80;;;;;;1586845;73;862;-64
2021/04/04 01:13:17;;;;;;;;;;;23.90;37.90;;;;;;1582398;73;748;-64
2021/04/04 01:15:20;;;;;;;;;;;23.90;38.00;;;;;;1584215;73;1172;-64
2021/04/04 01:17:22;;;;;;;;;;;23.90;38.00;;;;;;1585211;73;930;-64
2021/04/04 01:19:43;;;;;;;;;;;23.90;38.00;;;;;;1575513;73;657;-64
2021/04/04 01:21:45;;;;;;;;;;;23.90;38.00;;;;;;1585907;73;967;-64
2021/04/04 01:23:52;;;;;;;;;;;23.90;38.00;;;;;;1594111;73;763;-64
2021/04/04 01:25:58;;;;;;;;;;;23.90;37.90;;;;;;1590289;74;1912;-65
2021/04/04 01:28:04;;;;;;;;;;;23.90;38.00;;;;;;1589674;73;740;-64
2021/04/04 01:30:12;;;;;;;;;;;24.00;38.00;;;;;;1584495;73;978;-64
2021/04/04 01:32:12;;;;;;;;;;;24.00;37.90;;;;;;1597878;73;1637;-64
2021/04/04 01:34:14;;;;;;;;;;;24.00;37.90;;;;;;1586295;73;797;-65
2021/04/04 01:36:17;;;;;;;;;;;24.00;37.90;;;;;;1580172;73;1151;-63
2021/04/04 01:38:20;;;;;;;;;;;23.90;37.80;;;;;;1585809;73;945;-64
2021/04/04 01:40:22;;;;;;;;;;;24.00;37.80;;;;;;1587756;73;747;-64
2021/04/04 01:42:24;;;;;;;;;;;23.90;37.90;;;;;;1585616;73;760;-64
2021/04/04 01:44:26;;;;;;;;;;;23.90;37.80;;;;;;1586727;73;772;-65
2021/04/04 01:46:28;;;;;;;;;;;23.90;37.80;;;;;;1577088;73;1940;-64
2021/04/04 01:48:30;;;;;;;;;;;23.90;37.80;;;;;;1585025;73;753;-64
2021/04/04 01:50:31;;;;;;;;;;;23.90;37.80;;;;;;1584586;74;751;-65
2021/04/04 01:52:33;;;;;;;;;;;23.90;37.80;;;;;;1572695;73;756;-65
2021/04/04 01:54:35;;;;;;;;;;;23.90;37.80;;;;;;1576040;73;1194;-66
2021/04/04 01:56:37;;;;;;;;;;;23.90;37.80;;;;;;1584978;73;753;-64
2021/04/04 01:58:39;;;;;;;;;;;23.90;37.80;;;;;;1581812;73;739;-64
2021/04/04 02:00:41;;;;;;;;;;;23.90;37.80;;;;;;1587142;73;737;-64
2021/04/04 02:02:43;;;;;;;;;;;23.90;37.80;;;;;;1584982;73;696;-65
2021/04/04 02:04:45;;;;;;;;;;;23.90;37.80;;;;;;1556208;75;1271;-64
2021/04/04 02:06:47;;;;;;;;;;;23.90;37.90;;;;;;1586727;74;1976;-61
2021/04/04 02:08:48;;;;;;;;;;;23.90;38.00;;;;;;1584726;74;762;-66
2021/04/04 02:10:50;;;;;;;;;;;23.90;38.00;;;;;;1579253;75;801;-65
2021/04/04 02:12:53;;;;;;;;;;;23.90;38.00;;;;;;1586589;73;727;-65
2021/04/04 02:14:54;;;;;;;;;;;23.90;38.10;;;;;;1586055;73;1175;-65
2021/04/04 02:16:56;;;;;;;;;;;23.90;38.00;;;;;;1584248;74;681;-64
2021/04/04 02:18:58;;;;;;;;;;;23.90;38.00;;;;;;1582076;74;751;-64
2021/04/04 02:21:00;;;;;;;;;;;23.90;38.10;;;;;;1581880;73;762;-65
2021/04/04 02:23:03;;;;;;;;;;;23.90;38.20;;;;;;1588946;73;742;-65
2021/04/04 02:25:05;;;;;;;;;;;23.90;38.30;;;;;;1582877;73;1177;-65
2021/04/04 02:27:07;;;;;;;;;;;23.90;38.40;;;;;;1581553;73;1943;-65
2021/04/04 02:29:09;;;;;;;;;;;23.90;38.40;;;;;;1598063;73;740;-65
2021/04/04 02:31:14;;;;;;;;;;;23.90;38.30;;;;;;1579167;73;755;-64
2021/04/04 02:33:18;;;;;;;;;;;23.90;38.20;;;;;;1569221;73;777;-66
2021/04/04 02:35:21;;;;;;;;;;;23.80;38.20;;;;;;1586751;73;1121;-65
2021/04/04 02:37:23;;;;;;;;;;;23.80;38.20;;;;;;1582678;73;766;-65
2021/04/04 02:39:27;;;;;;;;;;;23.80;38.20;;;;;;1573235;73;798;-66
2021/04/04 02:41:28;;;;;;;;;;;23.70;38.30;;;;;;1589003;73;1047;-67
2021/04/04 02:43:30;;;;;;;;;;;23.70;38.40;;;;;;1576246;73;792;-67
2021/04/04 02:45:32;;;;;;;;;;;23.70;38.40;;;;;;1580469;73;1977;-66
2021/04/04 02:47:36;;;;;;;;;;;23.60;38.40;;;;;;1585808;73;759;-64
2021/04/04 02:49:38;;;;;;;;;;;23.60;38.30;;;;;;1576798;73;961;-65
2021/04/04 02:51:40;;;;;;;;;;;23.70;38.60;;;;;;1584146;73;659;-66
2021/04/04 02:53:49;;;;;;;;;;;23.70;38.60;;;;;;1578888;73;708;-66
2021/04/04 02:55:51;;;;;;;;;;;23.60;38.50;;;;;;1583440;73;1207;-64
2021/04/04 02:57:53;;;;;;;;;;;23.70;38.60;;;;;;1581231;73;746;-64
2021/04/04 02:59:55;;;;;;;;;;;23.60;38.40;;;;;;1579559;73;772;-66
2021/04/04 03:01:58;;;;;;;;;;;23.60;38.40;;;;;;1582891;73;731;-66
2021/04/04 03:04:00;;;;;;;;;;;23.60;38.50;;;;;;1584318;74;778;-65
2021/04/04 03:06:02;;;;;;;;;;;23.60;38.50;;;;;;1582692;73;1942;-64
2021/04/04 03:08:05;;;;;;;;;;;23.60;38.50;;;;;;1589300;73;814;-61
2021/04/04 03:10:08;;;;;;;;;;;23.70;38.60;;;;;;1594421;73;603;-64
2021/04/04 03:12:09;;;;;;;;;;;23.70;38.60;;;;;;1585142;73;771;-65
2021/04/04 03:14:11;;;;;;;;;;;23.70;38.60;;;;;;1582117;74;751;-65
2021/04/04 03:16:13;;;;;;;;;;;23.70;38.50;;;;;;1578653;74;1159;-65
2021/04/04 03:18:16;;;;;;;;;;;23.70;38.60;;;;;;1577968;73;692;-64
2021/04/04 03:20:18;;;;;;;;;;;23.80;38.50;;;;;;1577756;73;752;-65
2021/04/04 03:22:20;;;;;;;;;;;23.70;38.50;;;;;;1578808;73;732;-65
2021/04/04 03:24:22;;;;;;;;;;;23.70;38.50;;;;;;1578286;73;757;-65
2021/04/04 03:26:24;;;;;;;;;;;23.70;38.50;;;;;;1584677;73;1941;-65
2021/04/04 03:28:26;;;;;;;;;;;23.70;38.40;;;;;;1580078;73;815;-66
2021/04/04 03:30:43;;;;;;;;;;;23.70;38.40;;;;;;1584722;73;783;-66
2021/04/04 03:32:40;;;;;;;;;;;23.80;38.30;;;;;;1583801;73;1141;-65
2021/04/04 03:34:42;;;;;;;;;;;23.80;38.30;;;;;;1590435;73;1165;-65
2021/04/04 03:36:44;;;;;;;;;;;23.80;38.40;;;;;;1582381;73;766;-65
2021/04/04 03:38:45;;;;;;;;;;;23.90;38.40;;;;;;1583667;74;746;-64
2021/04/04 03:40:47;;;;;;;;;;;23.90;38.40;;;;;;1578335;73;753;-64
2021/04/04 03:42:49;;;;;;;;;;;23.90;38.20;;;;;;1584225;73;754;-64
2021/04/04 03:44:51;;;;;;;;;;;23.90;38.20;;;;;;1584063;73;1178;-65
2021/04/04 03:46:53;;;;;;;;;;;23.90;38.10;;;;;;1576065;73;1947;-65
2021/04/04 03:48:55;;;;;;;;;;;23.90;38.20;;;;;;1585664;73;778;-64
2021/04/04 03:50:57;;;;;;;;;;;24.00;38.20;;;;;;1584475;74;760;-65
2021/04/04 03:52:59;;;;;;;;;;;23.90;38.20;;;;;;1583108;73;807;-66
2021/04/04 03:55:20;;;;;;;;;;;23.90;38.30;;;;;;1582581;74;1239;-62
2021/04/04 03:57:22;;;;;;;;;;;23.90;38.20;;;;;;1629502;72;647;-63
2021/04/04 03:59:24;;;;;;;;;;;24.00;38.30;;;;;;1624188;73;764;-63
2021/04/04 04:01:26;;;;;;;;;;;24.00;38.40;;;;;;1625013;73;755;-63
2021/04/04 04:03:28;;;;;;;;;;;24.00;38.20;;;;;;1616462;72;764;-64
2021/04/04 04:05:30;;;;;;;;;;;24.00;38.10;;;;;;1630303;72;1277;-62
2021/04/04 04:07:31;;;;;;;;;;;23.90;38.10;;;;;;1622204;72;1946;-65
2021/04/04 04:09:33;;;;;;;;;;;24.00;38.10;;;;;;1625891;72;694;-64
2021/04/04 04:11:38;;;;;;;;;;;24.00;38.00;;;;;;1624423;72;738;-63
2021/04/04 04:13:40;;;;;;;;;;;24.00;38.10;;;;;;1626906;72;743;-63
2021/04/04 04:15:42;;;;;;;;;;;24.00;38.10;;;;;;1619826;73;1154;-64
2021/04/04 04:17:45;;;;;;;;;;;24.10;38.20;;;;;;1631300;72;758;-63
2021/04/04 04:19:46;;;;;;;;;;;24.10;38.00;;;;;;1626302;72;792;-63
2021/04/04 04:21:48;;;;;;;;;;;24.10;38.00;;;;;;1626760;72;753;-63
2021/04/04 04:23:50;;;;;;;;;;;24.00;37.80;;;;;;1630303;72;790;-63
2021/04/04 04:25:53;;;;;;;;;;;24.00;37.80;;;;;;1625752;72;1226;-63
2021/04/04 04:27:55;;;;;;;;;;;24.10;37.90;;;;;;1625247;72;1935;-65
2021/04/04 04:29:56;;;;;;;;;;;24.10;37.90;;;;;;1621420;72;786;-63
2021/04/04 04:31:58;;;;;;;;;;;24.00;37.80;;;;;;1621608;73;759;-63
2021/04/04 04:34:00;;;;;;;;;;;24.10;38.00;;;;;;1628993;72;756;-63
2021/04/04 04:36:02;;;;;;;;;;;24.00;37.70;;;;;;1628351;72;1174;-63
2021/04/04 04:38:04;;;;;;;;;;;24.00;37.80;;;;;;1624036;72;744;-63
2021/04/04 04:40:07;;;;;;;;;;;24.00;37.80;;;;;;1626541;72;751;-63
2021/04/04 04:42:11;;;;;;;;;;;24.00;37.80;;;;;;1625996;72;743;-64
2021/04/04 04:44:13;;;;;;;;;;;24.00;37.90;;;;;;1626880;72;1061;-64
2021/04/04 04:46:15;;;;;;;;;;;24.10;38.00;;;;;;1629040;72;1941;-64
2021/04/04 04:48:17;;;;;;;;;;;24.10;38.00;;;;;;1623227;72;676;-64
2021/04/04 04:50:19;;;;;;;;;;;24.10;37.90;;;;;;1624212;72;752;-64
2021/04/04 04:52:22;;;;;;;;;;;24.00;37.80;;;;;;1614829;72;800;-64
2021/04/04 04:54:24;;;;;;;;;;;24.00;38.00;;;;;;1615507;72;741;-67
2021/04/04 04:56:26;;;;;;;;;;;24.10;38.00;;;;;;1614573;72;1230;-63
2021/04/04 04:58:29;;;;;;;;;;;24.00;38.00;;;;;;1613888;72;664;-65
2021/04/04 05:00:31;;;;;;;;;;;24.00;37.90;;;;;;1618291;73;1018;-64
2021/04/04 05:02:33;;;;;;;;;;;24.00;37.90;;;;;;1613954;72;905;-64
2021/04/04 05:04:35;;;;;;;;;;;24.10;38.10;;;;;;1621782;72;735;-65
2021/04/04 05:06:37;;;;;;;;;;;24.10;38.10;;;;;;1619095;72;1931;-66
2021/04/04 05:08:43;;;;;;;;;;;24.00;38.00;;;;;;1621097;72;747;-64
2021/04/04 05:10:45;;;;;;;;;;;24.00;38.00;;;;;;1617067;72;1691;-67
2021/04/04 05:12:52;;;;;;;;;;;24.00;38.00;;;;;;1616935;72;752;-64
2021/04/04 05:14:54;;;;;;;;;;;24.10;38.10;;;;;;1614222;72;645;-65
2021/04/04 05:16:55;;;;;;;;;;;24.00;38.10;;;;;;1616005;72;1166;-64
2021/04/04 05:18:57;;;;;;;;;;;24.00;38.10;;;;;;1614702;72;772;-63
2021/04/04 05:20:59;;;;;;;;;;;24.00;38.20;;;;;;1619161;72;794;-63
2021/04/04 05:23:01;;;;;;;;;;;24.00;38.30;;;;;;1625552;72;749;-63
2021/04/04 05:25:03;;;;;;;;;;;24.10;38.40;;;;;;1620721;72;1158;-63
2021/04/04 05:27:05;;;;;;;;;;;24.00;38.40;;;;;;1618403;72;1926;-63
2021/04/04 05:29:10;;;;;;;;;;;24.00;38.30;;;;;;1625680;72;782;-64
2021/04/04 05:31:12;;;;;;;;;;;24.10;38.40;;;;;;1624489;72;807;-65
2021/04/04 05:33:14;;;;;;;;;;;24.00;38.20;;;;;;1623804;73;788;-63
2021/04/04 05:35:18;;;;;;;;;;;24.10;38.20;;;;;;1622635;72;1169;-62
2021/04/04 05:37:19;;;;;;;;;;;24.10;38.10;;;;;;1620047;72;1695;-63
2021/04/04 05:39:22;;;;;;;;;;;24.20;38.20;;;;;;1617140;72;761;-64
2021/04/04 05:41:24;;;;;;;;;;;24.20;38.30;;;;;;1621768;72;801;-63
2021/04/04 05:43:26;;;;;;;;;;;24.10;38.40;;;;;;1615359;72;806;-65
2021/04/04 05:45:29;;;;;;;;;;;24.10;38.40;;;;;;1619990;72;1218;-63
2021/04/04 05:47:47;;;;;;;;;;;24.10;38.50;;;;;;1616946;72;1923;-63
2021/04/04 05:50:00;;;;;;;;;;;24.10;38.60;;;;;;1615569;72;1103;-64
2021/04/04 05:52:03;;;;;;;;;;;24.20;38.50;;;;;;1624759;72;657;-63
2021/04/04 05:54:22;;;;;;;;;;;24.20;38.30;;;;;;1624900;72;755;-63
2021/04/04 05:56:27;;;;;;;;;;;24.20;38.10;;;;;;1619261;73;1217;-63
2021/04/04 05:58:39;;;;;;;;;;;24.20;38.10;;;;;;1616311;72;675;-63
2021/04/04 06:00:45;;;;;;;;;;;24.20;38.00;;;;;;1626568;72;739;-63
2021/04/04 06:03:07;;;;;;;;;;;24.20;37.90;;;;;;1617582;72;759;-64
2021/04/04 06:05:10;;;;;;;;;;;24.20;37.90;;;;;;1629916;72;1528;-64
2021/04/04 06:07:30;;;;;;;;;;;24.20;38.00;;;;;;1627961;72;1940;-66
2021/04/04 06:09:34;;;;;;;;;;;24.20;38.00;;;;;;1619163;72;801;-62
2021/04/04 06:11:44;;;;;;;;;;;24.30;38.40;;;;;;1620960;72;1694;-63
2021/04/04 06:13:47;;;;;;;;;;;24.30;38.50;;;;;;1621231;72;1530;-63
2021/04/04 06:16:07;;;;;;;;;;;24.30;38.60;;;;;;1616590;73;1512;-70
2021/04/04 06:18:27;;;;;;;;;;;24.30;38.40;;;;;;1611009;72;816;-67
2021/04/04 06:20:46;;;;;;;;;;;24.30;37.20;;;;;;1614537;72;748;-67
2021/04/04 06:22:53;;;;;;;;;;;24.30;36.80;;;;;;1614390;73;696;-66
2021/04/04 06:24:59;;;;;;;;;;;24.20;35.90;;;;;;1613665;72;965;-64
2021/04/04 06:27:03;;;;;;;;;;;24.30;35.90;;;;;;1622301;72;1947;-65
2021/04/04 06:29:15;;;;;;;;;;;24.20;35.70;;;;;;1623791;73;800;-64
2021/04/04 06:31:18;;;;;;;;;;;24.20;35.90;;;;;;1616400;72;755;-65
2021/04/04 06:33:24;;;;;;;;;;;24.20;36.20;;;;;;1618946;73;782;-67
2021/04/04 06:35:32;;;;;;;;;;;24.20;36.40;;;;;;1609859;72;1164;-64
2021/04/04 06:37:50;;;;;;;;;;;24.20;36.60;;;;;;1610388;72;729;-65
2021/04/04 06:39:54;;;;;;;;;;;24.20;36.70;;;;;;1548541;75;1016;-65
2021/04/04 06:42:00;;;;;;;;;;;24.20;36.80;;;;;;1576660;73;1114;-65
2021/04/04 06:44:17;;;;;;;;;;;24.20;37.00;;;;;;1620154;72;755;-67
2021/04/04 06:46:26;;;;;;;;;;;24.20;37.10;;;;;;1615918;72;1166;-64
2021/04/04 06:48:30;;;;;;;;;;;24.20;34.00;;;;;;1625031;72;1935;-65
2021/04/04 06:50:33;;;;;;;;;;;24.30;30.40;;;;;;1628809;72;1517;-64
2021/04/04 06:52:39;;;;;;;;;;;24.40;30.30;;;;;;1626877;72;742;-64
2021/04/04 06:54:52;;;;;;;;;;;24.30;29.30;;;;;;1619256;72;755;-64
2021/04/04 06:56:58;;;;;;;;;;;24.30;28.80;;;;;;1621912;72;1139;-64
2021/04/04 06:59:08;;;;;;;;;;;24.30;28.70;;;;;;1573455;73;1214;-65
2021/04/04 07:01:20;;;;;;;;;;;24.40;28.20;;;;;;1616593;72;736;-65
2021/04/04 07:03:24;;;;;;;;;;;24.50;26.00;;;;;;1612194;72;1542;-67
2021/04/04 07:05:27;;;;;;;;;;;24.50;23.20;;;;;;1621649;72;1181;-63
2021/04/04 07:07:36;;;;;;;;;;;24.50;23.00;;;;;;1616341;72;1929;-65
2021/04/04 07:09:43;;;;;;;;;;;24.50;21.20;;;;;;1625651;72;743;-65
2021/04/04 07:11:46;;;;;;;;;;;24.50;21.10;;;;;;1619007;72;798;-63
2021/04/04 07:13:50;;;;;;;;;;;24.50;21.40;;;;;;1619707;72;1502;-65
2021/04/04 07:16:02;;;;;;;;;;;24.60;20.70;;;;;;1627612;72;1853;-64
2021/04/04 07:18:06;;;;;;;;;;;24.50;18.70;;;;;;1624496;72;958;-65
2021/04/04 07:20:22;;;;;;;;;;;24.50;19.20;;;;;;1623385;72;723;-64
2021/04/04 07:22:31;;;;;;;;;;;24.50;19.00;;;;;;1560764;72;1176;-64
2021/04/04 07:24:51;;;;;;;;;;;24.50;19.90;;;;;;1627923;72;1593;-65
2021/04/04 07:27:07;;;;;;;;;;;24.60;20.50;;;;;;1621156;72;1091;-66
2021/04/04 07:29:16;;;;;;;;;;;24.60;20.90;;;;;;1602256;73;983;-65
2021/04/04 07:31:18;;;;;;;;;;;24.60;19.40;;;;;;1615879;72;653;-65
2021/04/04 07:33:27;;;;;;;;;;;24.50;20.30;;;;;;1626958;72;749;-65
2021/04/04 07:35:40;;;;;;;;;;;24.60;21.40;;;;;;1625575;72;1182;-65
2021/04/04 07:37:52;;;;;;;;;;;24.60;21.30;;;;;;1628757;72;1030;-65
2021/04/04 07:39:55;;;;;;;;;;;24.50;20.40;;;;;;1597999;74;1010;-62
2021/04/04 07:42:02;;;;;;;;;;;24.50;20.50;;;;;;1617194;72;1498;-65
2021/04/04 07:44:21;;;;;;;;;;;24.40;19.80;;;;;;1622842;72;684;-66
2021/04/04 07:46:24;;;;;;;;;;;24.40;20.80;;;;;;1624254;73;1180;-65
2021/04/04 07:48:36;;;;;;;;;;;24.50;21.00;;;;;;1621088;73;1924;-64
2021/04/04 07:50:40;;;;;;;;;;;24.50;20.90;;;;;;1622116;72;739;-66
2021/04/04 07:53:01;;;;;;;;;;;24.40;19.60;;;;;;1619432;73;785;-65
2021/04/04 07:55:20;;;;;;;;;;;24.30;19.30;;;;;;1624510;72;1202;-65
2021/04/04 07:57:32;;;;;;;;;;;24.20;19.30;;;;;;1611901;72;1027;-65
2021/04/04 07:59:45;;;;;;;;;;;24.30;20.90;;;;;;1617595;72;1170;-65
2021/04/04 08:02:00;;;;;;;;;;;24.30;20.20;;;;;;1628951;72;994;-65
2021/04/04 08:04:03;;;;;;;;;;;24.20;19.50;;;;;;1623922;72;762;-66
2021/04/04 08:06:07;;;;;;;;;;;24.20;20.30;;;;;;1615055;72;1781;-67
2021/04/04 08:08:11;;;;;;;;;;;24.20;20.30;;;;;;1622286;72;1936;-67
2021/04/04 08:10:20;;;;;;;;;;;24.20;20.20;;;;;;1618940;72;726;-64
2021/04/04 08:12:40;;;;;;;;;;;24.20;20.40;;;;;;1616129;72;1759;-65
2021/04/04 08:14:49;;;;;;;;;;;24.20;20.40;;;;;;1622682;72;667;-65
2021/04/04 08:16:57;;;;;;;;;;;24.10;20.50;;;;;;1587224;72;1164;-67
2021/04/04 08:18:59;;;;;;;;;;;24.20;19.90;;;;;;1622007;72;768;-65
2021/04/04 08:21:05;;;;;;;;;;;24.00;19.20;;;;;;1620960;72;767;-66
2021/04/04 08:23:08;;;;;;;;;;;23.90;18.70;;;;;;1616114;72;803;-66
2021/04/04 08:25:24;;;;;;;;;;;23.90;19.40;;;;;;1623162;72;1179;-65
2021/04/04 08:27:44;;;;;;;;;;;23.90;19.20;;;;;;1616586;72;1947;-65
2021/04/04 08:29:46;;;;;;;;;;;23.90;20.50;;;;;;1622802;72;786;-65
2021/04/04 08:31:49;;;;;;;;;;;23.90;20.20;;;;;;1626483;72;738;-63
2021/04/04 08:33:51;;;;;;;;;;;23.90;19.40;;;;;;1628233;72;725;-64
2021/04/04 08:35:53;;;;;;;;;;;23.80;19.20;;;;;;1630980;72;1178;-66
2021/04/04 08:37:57;;;;;;;;;;;23.80;18.40;;;;;;1625493;72;732;-67
2021/04/04 08:39:59;;;;;;;;;;;23.20;16.40;;;;;;1620829;72;872;-65
2021/04/04 08:42:03;;;;;;;;;;;22.90;17.30;;;;;;1616805;72;753;-68
2021/04/04 08:44:06;;;;;;;;;;;22.90;18.30;;;;;;1627108;72;796;-66
2021/04/04 08:46:15;;;;;;;;;;;23.00;19.30;;;;;;1624725;73;1157;-67
2021/04/04 08:48:17;;;;;;;;;;;23.20;20.30;;;;;;1614669;73;1933;-65
2021/04/04 08:50:19;;;;;;;;;;;23.20;18.80;;;;;;1625548;73;738;-65
2021/04/04 08:52:26;;;;;;;;;;;23.20;18.90;;;;;;1624069;72;750;-66
2021/04/04 08:54:28;;;;;;;;;;;23.20;17.60;;;;;;1626211;72;680;-66
2021/04/04 08:56:30;;;;;;;;;;;23.10;18.10;;;;;;1626085;72;1229;-67
2021/04/04 08:58:32;;;;;;;;;;;23.20;18.40;;;;;;1625616;73;734;-65
2021/04/04 09:00:34;;;;;;;;;;;23.20;18.10;;;;;;1624615;73;738;-66
2021/04/04 09:02:46;;;;;;;;;;;23.30;18.40;;;;;;1622381;72;744;-65
2021/04/04 09:04:48;;;;;;;;;;;23.30;19.70;;;;;;1619132;72;805;-65
2021/04/04 09:06:51;;;;;;;;;;;23.20;16.90;;;;;;1622983;72;1176;-65
2021/04/04 09:08:53;;;;;;;;;;;23.20;17.20;;;;;;1609904;72;1958;-63
2021/04/04 09:10:54;;;;;;;;;;;23.00;16.90;;;;;;1623794;72;788;-66
2021/04/04 09:12:56;;;;;;;;;;;22.90;16.80;;;;;;1617102;72;805;-66
2021/04/04 09:15:00;;;;;;;;;;;23.00;16.70;;;;;;1623828;72;726;-65
2021/04/04 09:17:03;;;;;;;;;;;22.80;16.10;;;;;;1612930;72;1671;-63
2021/04/04 09:19:05;;;;;;;;;;;22.60;16.10;;;;;;1625659;72;1118;-65
2021/04/04 09:21:08;;;;;;;;;;;22.60;17.70;;;;;;1626271;72;761;-66
2021/04/04 09:23:09;;;;;;;;;;;22.70;19.40;;;;;;1627703;72;815;-65
2021/04/04 09:25:11;;;;;;;;;;;22.90;19.70;;;;;;1612865;72;1162;-66
2021/04/04 09:27:14;;;;;;;;;;;23.00;18.10;;;;;;1626571;72;846;-64
2021/04/04 09:29:16;;;;;;;;;;;23.00;18.60;;;;;;1617210;72;1944;-62
2021/04/04 09:31:24;;;;;;;;;;;23.20;19.60;;;;;;1625958;72;730;-65
2021/04/04 09:33:29;;;;;;;;;;;23.20;19.30;;;;;;1622988;72;759;-65
2021/04/04 09:35:31;;;;;;;;;;;23.20;19.40;;;;;;1625562;73;1185;-64
2021/04/04 09:37:33;;;;;;;;;;;23.20;18.30;;;;;;1617404;72;759;-66
2021/04/04 09:39:35;;;;;;;;;;;23.20;18.60;;;;;;1629469;72;741;-65
2021/04/04 09:41:37;;;;;;;;;;;22.90;17.50;;;;;;1624207;72;778;-63
2021/04/04 09:43:41;;;;;;;;;;;22.60;16.50;;;;;;1626955;72;743;-66
2021/04/04 09:45:43;;;;;;;;;;;22.20;16.20;;;;;;1626363;72;1158;-65
2021/04/04 09:47:45;;;;;;;;;;;22.10;18.10;;;;;;1627614;72;751;-65
2021/04/04 09:49:52;;;;;;;;;;;22.20;17.70;;;;;;1622877;73;1955;-65
2021/04/04 09:51:51;;;;;;;;;;;22.30;18.10;;;;;;1622837;72;1165;-64
2021/04/04 09:53:53;;;;;;;;;;;22.20;17.10;;;;;;1620472;72;755;-66
2021/04/04 09:55:55;;;;;;;;;;;22.20;17.80;;;;;;1607001;72;213251;-58
2021/04/04 09:57:59;;;;;;;;;;;22.00;17.50;;;;;;1521080;76;1169;-58
2021/04/04 10:00:01;;;;;;;;;;;21.40;17.40;;;;;;1551195;75;1175;-57
2021/04/04 10:02:03;;;;;;;;;;;21.20;17.70;;;;;;1550276;75;775;-55
2021/04/04 10:04:08;;;;;;;;;;;21.30;18.10;;;;;;1542275;75;731;-57
2021/04/04 10:06:13;;;;;;;;;;;21.20;18.40;;;;;;1549523;75;973;-58
2021/04/04 10:08:25;;;;;;;;;;;21.30;17.50;;;;;;1555821;75;1946;-58
2021/04/04 10:10:28;;;;;;;;;;;21.40;19.10;;;;;;1544949;75;767;-57
2021/04/04 10:12:30;;;;;;;;;;;21.60;19.20;;;;;;1555085;75;990;-58
2021/04/04 10:14:32;;;;;;;;;;;21.90;19.20;;;;;;1556869;75;765;-58
2021/04/04 10:16:34;;;;;;;;;;;22.00;18.10;;;;;;1557099;75;784;-56
2021/04/04 10:18:36;;;;;;;;;;;22.00;18.00;;;;;;1551485;75;1158;-57
2021/04/04 10:20:45;;;;;;;;;;;22.10;18.40;;;;;;1550674;75;644;-57
2021/04/04 10:22:50;;;;;;;;;;;22.20;18.20;;;;;;1552171;75;762;-56
2021/04/04 10:24:52;;;;;;;;;;;21.70;15.90;;;;;;1549365;75;813;-55
2021/04/04 10:27:11;;;;;;;;;;;21.20;17.90;;;;;;1556112;75;755;-58
2021/04/04 10:29:15;;;;;;;;;;;21.00;17.80;;;;;;1553426;75;1944;-56
2021/04/04 10:31:17;;;;;;;;;;;21.20;18.70;;;;;;1549480;75;1621;-58
2021/04/04 10:33:25;;;;;;;;;;;20.90;17.00;;;;;;1552194;75;815;-55
2021/04/04 10:35:28;;;;;;;;;;;20.50;17.80;;;;;;1542123;75;768;-57
2021/04/04 10:37:30;;;;;;;;;;;20.30;19.00;;;;;;1551070;75;688;-56
2021/04/04 10:39:32;;;;;;;;;;;20.50;19.40;;;;;;1555189;75;1229;-57
2021/04/04 10:41:36;;;;;;;;;;;20.70;19.10;;;;;;1554020;75;736;-58
2021/04/04 10:43:39;;;;;;;;;;;20.90;18.90;;;;;;1549116;75;1667;-57
2021/04/04 10:45:59;;;;;;;;;;;21.00;18.40;;;;;;1553594;75;737;-56
2021/04/04 10:48:07;;;;;;;;;;;21.10;18.90;;;;;;1553004;75;805;-57
2021/04/04 10:50:10;;;;;;;;;;;21.30;19.80;;;;;;1552025;75;1947;-56
2021/04/04 10:52:12;;;;;;;;;;;21.50;19.40;;;;;;1554589;75;756;-57
2021/04/04 10:54:14;;;;;;;;;;;21.60;18.60;;;;;;1553378;75;830;-56
2021/04/04 10:56:16;;;;;;;;;;;21.60;18.90;;;;;;1516134;76;793;-55
2021/04/04 10:58:24;;;;;;;;;;;21.60;18.50;;;;;;1546775;75;1253;-55
2021/04/04 11:00:24;;;;;;;;;;;21.60;18.30;;;;;;1544773;75;1087;-60
2021/04/04 11:02:26;;;;;;;;;;;21.70;19.10;;;;;;1544506;75;694;-59
2021/04/04 11:04:30;;;;;;;;;;;21.70;19.20;;;;;;1544731;75;783;-57
2021/04/04 11:06:32;;;;;;;;;;;21.70;17.80;;;;;;1541290;75;888;-57
2021/04/04 11:08:33;;;;;;;;;;;21.70;17.70;;;;;;1544368;75;1951;-60
2021/04/04 11:10:35;;;;;;;;;;;21.80;18.80;;;;;;1545277;75;811;-59
2021/04/04 11:12:37;;;;;;;;;;;21.60;18.30;;;;;;1542371;75;675;-58
2021/04/04 11:14:39;;;;;;;;;;;21.80;19.50;;;;;;1547109;75;1220;-58
2021/04/04 11:16:41;;;;;;;;;;;21.90;18.90;;;;;;1549534;75;657;-56
2021/04/04 11:18:48;;;;;;;;;;;22.00;19.10;;;;;;1548618;75;1194;-58
2021/04/04 11:20:52;;;;;;;;;;;21.70;17.60;;;;;;1548548;75;825;-59
2021/04/04 11:22:53;;;;;;;;;;;21.70;18.60;;;;;;1545546;75;651;-55
2021/04/04 11:25:05;;;;;;;;;;;21.30;17.30;;;;;;1547177;75;707;-55
2021/04/04 11:27:07;;;;;;;;;;;21.00;18.20;;;;;;1546150;75;664;-57
2021/04/04 11:29:10;;;;;;;;;;;20.80;17.80;;;;;;1545923;75;1940;-55
2021/04/04 11:31:12;;;;;;;;;;;20.90;19.30;;;;;;1543986;75;759;-59
2021/04/04 11:33:18;;;;;;;;;;;20.80;18.10;;;;;;1516884;76;1031;-59
2021/04/04 11:35:20;;;;;;;;;;;20.60;18.00;;;;;;1547104;75;704;-57
2021/04/04 11:37:24;;;;;;;;;;;20.70;18.20;;;;;;1543164;75;707;-59
2021/04/04 11:39:26;;;;;;;;;;;20.90;18.40;;;;;;1547208;75;1174;-59
2021/04/04 11:41:30;;;;;;;;;;;20.70;16.40;;;;;;1545283;75;808;-58
2021/04/04 11:43:32;;;;;;;;;;;20.10;18.10;;;;;;1544769;75;864;-58
2021/04/04 11:45:35;;;;;;;;;;;20.30;20.00;;;;;;1544244;75;815;-57
2021/04/04 11:47:37;;;;;;;;;;;20.50;20.40;;;;;;1549466;75;778;-54
2021/04/04 11:49:39;;;;;;;;;;;20.70;20.60;;;;;;1545542;75;1937;-57
2021/04/04 11:51:41;;;;;;;;;;;20.90;18.40;;;;;;1543994;75;742;-54
2021/04/04 11:53:43;;;;;;;;;;;20.90;17.60;;;;;;1547961;75;698;-57
2021/04/04 11:55:47;;;;;;;;;;;20.00;16.30;;;;;;1547905;75;882;-58
2021/04/04 11:57:49;;;;;;;;;;;19.80;17.60;;;;;;1546711;75;1124;-56
2021/04/04 11:59:51;;;;;;;;;;;19.90;18.40;;;;;;1546412;75;1332;-56
2021/04/04 12:01:53;;;;;;;;;;;20.20;18.20;;;;;;1545673;75;663;-57
2021/04/04 12:03:55;;;;;;;;;;;20.30;19.40;;;;;;1547494;75;803;-59
2021/04/04 12:05:57;;;;;;;;;;;20.50;19.20;;;;;;1547598;75;763;-57
2021/04/04 12:07:59;;;;;;;;;;;20.80;19.30;;;;;;1547812;75;794;-58
2021/04/04 12:10:01;;;;;;;;;;;20.90;19.30;;;;;;1544878;75;1938;-58
2021/04/04 12:12:03;;;;;;;;;;;21.00;19.60;;;;;;1545608;75;645;-58
2021/04/04 12:14:05;;;;;;;;;;;21.20;19.70;;;;;;1548189;75;791;-57
2021/04/04 12:16:07;;;;;;;;;;;21.30;19.80;;;;;;1542699;75;811;-58
2021/04/04 12:18:09;;;;;;;;;;;21.40;19.80;;;;;;1543874;75;1199;-57
2021/04/04 12:20:11;;;;;;;;;;;21.40;19.80;;;;;;1547715;75;796;-56
2021/04/04 12:22:13;;;;;;;;;;;21.40;19.60;;;;;;1544093;75;719;-57